createdAt,value
2019-03-24T00:00:05.417Z,8.93
2019-03-24T00:00:50.220Z,9.10
2019-03-24T00:01:41.213Z,7.97
2019-03-24T00:02:14.528Z,7.53
2019-03-24T00:02:51.831Z,7.47
2019-03-24T00:03:29.118Z,7.00
2019-03-24T00:04:09.254Z,7.03
2019-03-24T00:04:45.724Z,7.53
2019-03-24T00:05:22.886Z,7.37
2019-03-24T00:06:00.567Z,7.70
2019-03-24T00:06:37.819Z,8.27
2019-03-24T00:07:14.737Z,7.87
2019-03-24T00:07:54.178Z,9.83
2019-03-24T00:08:31.616Z,8.23
2019-03-24T00:09:12.666Z,7.40
2019-03-24T00:09:52.461Z,8.70
2019-03-24T00:10:29.482Z,8.50
2019-03-24T00:11:06.700Z,9.03
2019-03-24T00:11:43.732Z,8.40
2019-03-24T00:12:20.891Z,8.83
2019-03-24T00:12:57.533Z,8.00
2019-03-24T00:13:34.606Z,8.00
2019-03-24T00:14:11.458Z,8.13
2019-03-24T00:14:48.105Z,8.13
2019-03-24T00:15:26.619Z,9.20
2019-03-24T00:16:04.173Z,9.07
2019-03-24T00:16:41.313Z,8.70
2019-03-24T00:17:18.334Z,10.03
2019-03-24T00:17:55.528Z,8.07
2019-03-24T00:18:32.700Z,8.40
2019-03-24T00:19:09.648Z,7.80
2019-03-24T00:19:46.632Z,9.10
2019-03-24T00:20:23.407Z,9.07
2019-03-24T00:21:01.046Z,9.20
2019-03-24T00:21:37.658Z,10.47
2019-03-24T00:22:15.113Z,9.20
2019-03-24T00:22:54.012Z,10.40
2019-03-24T00:23:30.819Z,8.67
2019-03-24T00:24:07.727Z,10.40
2019-03-24T00:24:44.831Z,10.30
2019-03-24T00:25:22.111Z,10.73
2019-03-24T00:25:58.797Z,10.40
2019-03-24T00:26:35.718Z,10.40
2019-03-24T00:27:13.118Z,10.53
2019-03-24T00:27:49.667Z,9.30
2019-03-24T00:28:26.639Z,9.77
2019-03-24T00:29:04.105Z,10.73
2019-03-24T00:29:44.917Z,9.63
2019-03-24T00:30:22.242Z,9.30
2019-03-24T00:30:59.408Z,9.73
2019-03-24T00:31:38.901Z,8.73
2019-03-24T00:32:16.009Z,10.40
2019-03-24T00:32:52.612Z,10.70
2019-03-24T00:33:29.223Z,10.43
2019-03-24T00:34:06.584Z,10.47
2019-03-24T00:34:43.973Z,10.07
2019-03-24T00:35:21.524Z,10.87
2019-03-24T00:35:58.195Z,10.00
2019-03-24T00:36:35.265Z,10.47
2019-03-24T00:37:19.505Z,10.33
2019-03-24T00:38:00.249Z,11.00
2019-03-24T00:38:36.728Z,9.57
2019-03-24T00:39:13.332Z,10.27
2019-03-24T00:39:49.834Z,9.80
2019-03-24T00:40:27.066Z,10.40
2019-03-24T00:41:05.778Z,9.90
2019-03-24T00:41:43.521Z,11.97
2019-03-24T00:42:20.220Z,11.63
2019-03-24T00:42:57.258Z,10.67
2019-03-24T00:43:38.997Z,11.60
2019-03-24T00:44:16.010Z,10.30
2019-03-24T00:44:53.430Z,10.57
2019-03-24T00:45:36.715Z,8.77
2019-03-24T00:46:10.842Z,11.87
2019-03-24T00:46:47.340Z,10.97
2019-03-24T00:47:24.585Z,10.00
2019-03-24T00:48:01.051Z,10.80
2019-03-24T00:48:38.197Z,10.90
2019-03-24T00:49:15.222Z,10.57
2019-03-24T00:49:51.859Z,9.83
2019-03-24T00:50:28.712Z,10.90
2019-03-24T00:51:05.933Z,10.53
2019-03-24T00:51:42.603Z,12.00
2019-03-24T00:52:19.514Z,10.23
2019-03-24T00:52:56.555Z,11.03
2019-03-24T00:53:33.225Z,11.37
2019-03-24T00:54:09.840Z,10.07
2019-03-24T00:54:47.133Z,9.27
2019-03-24T00:55:25.344Z,10.17
2019-03-24T00:56:01.813Z,10.87
2019-03-24T00:56:38.769Z,10.10
2019-03-24T00:57:15.994Z,10.90
2019-03-24T00:57:53.419Z,9.60
2019-03-24T00:58:30.068Z,10.93
2019-03-24T00:59:07.006Z,10.33
2019-03-24T00:59:44.017Z,10.33
2019-03-24T01:00:26.981Z,11.77
2019-03-24T01:01:04.213Z,11.07
2019-03-24T01:01:40.733Z,9.87
2019-03-24T01:02:17.721Z,9.60
2019-03-24T01:02:54.855Z,11.27
2019-03-24T01:03:31.336Z,12.13
2019-03-24T01:04:08.000Z,12.00
2019-03-24T01:04:44.786Z,11.57
2019-03-24T01:05:21.426Z,11.00
2019-03-24T01:05:57.947Z,10.57
2019-03-24T01:06:34.574Z,10.60
2019-03-24T01:07:11.045Z,12.20
2019-03-24T01:07:47.490Z,11.77
2019-03-24T01:08:24.000Z,11.97
2019-03-24T01:09:00.528Z,10.10
2019-03-24T01:09:37.019Z,11.00
2019-03-24T01:10:14.616Z,11.33
2019-03-24T01:10:53.666Z,12.30
2019-03-24T01:11:30.221Z,10.47
2019-03-24T01:12:06.931Z,12.17
2019-03-24T01:12:43.517Z,11.67
2019-03-24T01:13:20.248Z,11.70
2019-03-24T01:13:56.841Z,11.70
2019-03-24T01:14:33.355Z,12.23
2019-03-24T01:15:10.226Z,13.37
2019-03-24T01:15:48.144Z,15.40
2019-03-24T01:16:24.911Z,11.90
2019-03-24T01:17:01.659Z,13.60
2019-03-24T01:17:38.141Z,13.90
2019-03-24T01:18:14.903Z,13.07
2019-03-24T01:18:51.548Z,13.57
2019-03-24T01:19:28.164Z,13.27
2019-03-24T01:20:04.875Z,12.60
2019-03-24T01:20:41.427Z,11.03
2019-03-24T01:21:17.982Z,10.90
2019-03-24T01:21:54.604Z,11.67
2019-03-24T01:22:31.350Z,10.70
2019-03-24T01:23:07.936Z,11.03
2019-03-24T01:23:44.529Z,11.60
2019-03-24T01:24:21.108Z,11.43
2019-03-24T01:24:58.927Z,9.90
2019-03-24T01:25:35.584Z,10.07
2019-03-24T01:26:12.110Z,11.50
2019-03-24T01:26:48.575Z,9.83
2019-03-24T01:27:25.184Z,10.40
2019-03-24T01:28:01.637Z,9.10
2019-03-24T01:28:38.091Z,7.80
2019-03-24T01:29:14.649Z,9.00
2019-03-24T01:29:52.683Z,9.30
2019-03-24T01:30:29.228Z,7.77
2019-03-24T01:31:05.809Z,9.00
2019-03-24T01:31:42.236Z,8.73
2019-03-24T01:32:18.873Z,8.53
2019-03-24T01:32:55.419Z,8.70
2019-03-24T01:33:31.886Z,8.53
2019-03-24T01:34:08.446Z,8.43
2019-03-24T01:34:44.845Z,8.50
2019-03-24T01:35:21.298Z,8.70
2019-03-24T01:35:57.797Z,8.83
2019-03-24T01:36:34.269Z,8.80
2019-03-24T01:37:10.939Z,8.60
2019-03-24T01:37:47.547Z,10.00
2019-03-24T01:38:24.118Z,9.20
2019-03-24T01:39:00.680Z,8.70
2019-03-24T01:39:37.248Z,8.03
2019-03-24T01:40:13.894Z,8.13
2019-03-24T01:40:50.462Z,8.13
2019-03-24T01:41:27.188Z,8.80
2019-03-24T01:42:03.762Z,8.87
2019-03-24T01:42:40.263Z,8.17
2019-03-24T01:43:16.762Z,7.90
2019-03-24T01:43:53.344Z,8.50
2019-03-24T01:44:32.668Z,8.77
2019-03-24T01:45:10.823Z,8.13
2019-03-24T01:45:57.909Z,8.77
2019-03-24T01:46:25.726Z,8.77
2019-03-24T01:47:02.285Z,8.57
2019-03-24T01:47:40.266Z,10.00
2019-03-24T01:48:16.793Z,8.60
2019-03-24T01:48:53.378Z,9.73
2019-03-24T01:49:29.935Z,9.03
2019-03-24T01:50:06.930Z,7.80
2019-03-24T01:50:43.465Z,8.90
2019-03-24T01:51:20.125Z,9.27
2019-03-24T01:51:56.741Z,9.50
2019-03-24T01:52:33.217Z,9.50
2019-03-24T01:53:09.658Z,9.40
2019-03-24T01:53:46.218Z,8.77
2019-03-24T01:54:22.706Z,8.47
2019-03-24T01:54:59.349Z,9.47
2019-03-24T01:55:35.780Z,10.27
2019-03-24T01:56:12.237Z,9.63
2019-03-24T01:56:48.784Z,9.33
2019-03-24T01:57:25.325Z,9.40
2019-03-24T01:58:03.383Z,9.30
2019-03-24T01:58:39.868Z,7.97
2019-03-24T01:59:20.310Z,8.10
2019-03-24T01:59:56.968Z,9.60
2019-03-24T02:00:33.555Z,9.70
2019-03-24T02:01:10.018Z,9.23
2019-03-24T02:01:46.638Z,10.13
2019-03-24T02:02:23.326Z,9.27
2019-03-24T02:02:59.869Z,9.00
2019-03-24T02:03:36.377Z,10.00
2019-03-24T02:04:12.939Z,10.10
2019-03-24T02:04:49.485Z,8.50
2019-03-24T02:05:26.155Z,9.10
2019-03-24T02:06:02.767Z,8.43
2019-03-24T02:06:39.214Z,9.37
2019-03-24T02:07:16.777Z,9.10
2019-03-24T02:07:53.312Z,8.90
2019-03-24T02:08:29.785Z,10.87
2019-03-24T02:09:08.846Z,9.33
2019-03-24T02:09:45.633Z,10.37
2019-03-24T02:10:22.310Z,10.50
2019-03-24T02:10:58.912Z,11.43
2019-03-24T02:11:35.544Z,11.43
2019-03-24T02:12:12.067Z,10.97
2019-03-24T02:12:48.666Z,9.13
2019-03-24T02:13:25.275Z,10.00
2019-03-24T02:14:01.842Z,10.57
2019-03-24T02:14:38.507Z,10.10
2019-03-24T02:15:16.461Z,9.47
2019-03-24T02:15:53.027Z,9.40
2019-03-24T02:16:29.618Z,10.70
2019-03-24T02:17:06.207Z,11.20
2019-03-24T02:17:42.753Z,10.53
2019-03-24T02:18:19.289Z,10.63
2019-03-24T02:18:55.803Z,10.70
2019-03-24T02:19:32.377Z,10.20
2019-03-24T02:20:09.387Z,12.40
2019-03-24T02:20:46.913Z,10.77
2019-03-24T02:21:23.530Z,12.40
2019-03-24T02:22:00.174Z,11.33
2019-03-24T02:22:36.872Z,10.90
2019-03-24T02:23:13.463Z,10.63
2019-03-24T02:23:49.895Z,10.00
2019-03-24T02:24:26.413Z,10.97
2019-03-24T02:25:03.790Z,10.20
2019-03-24T02:25:40.277Z,11.13
2019-03-24T02:26:19.740Z,10.40
2019-03-24T02:26:56.237Z,11.37
2019-03-24T02:27:32.710Z,12.20
2019-03-24T02:28:09.297Z,11.10
2019-03-24T02:28:45.767Z,10.27
2019-03-24T02:29:22.354Z,10.30
2019-03-24T02:29:58.941Z,11.33
2019-03-24T02:30:35.554Z,9.87
2019-03-24T02:31:12.012Z,10.30
2019-03-24T02:31:48.559Z,11.47
2019-03-24T02:32:25.151Z,9.97
2019-03-24T02:33:01.783Z,10.47
2019-03-24T02:33:39.586Z,10.87
2019-03-24T02:34:18.459Z,11.07
2019-03-24T02:34:56.145Z,10.87
2019-03-24T02:35:37.972Z,10.60
2019-03-24T02:36:14.553Z,10.10
2019-03-24T02:36:51.092Z,10.43
2019-03-24T02:37:27.588Z,10.33
2019-03-24T02:38:04.060Z,9.60
2019-03-24T02:38:40.639Z,10.37
2019-03-24T02:39:17.228Z,10.00
2019-03-24T02:39:53.718Z,9.13
2019-03-24T02:40:30.178Z,9.53
2019-03-24T02:41:06.722Z,10.77
2019-03-24T02:41:43.538Z,10.73
2019-03-24T02:42:20.189Z,10.27
2019-03-24T02:42:56.611Z,10.80
2019-03-24T02:43:33.176Z,10.73
2019-03-24T02:44:09.726Z,11.27
2019-03-24T02:44:46.151Z,10.67
2019-03-24T02:45:22.745Z,10.67
2019-03-24T02:45:59.416Z,10.10
2019-03-24T02:46:36.008Z,10.93
2019-03-24T02:47:12.756Z,9.43
2019-03-24T02:47:49.359Z,9.10
2019-03-24T02:48:26.091Z,10.60
2019-03-24T02:49:02.579Z,10.53
2019-03-24T02:49:39.057Z,10.47
2019-03-24T02:50:15.615Z,10.87
2019-03-24T02:50:52.252Z,10.57
2019-03-24T02:51:28.761Z,9.10
2019-03-24T02:52:05.420Z,10.30
2019-03-24T02:52:42.067Z,10.60
2019-03-24T02:53:18.682Z,11.17
2019-03-24T02:53:55.248Z,9.40
2019-03-24T02:54:33.571Z,10.70
2019-03-24T02:55:11.395Z,8.67
2019-03-24T02:55:47.993Z,9.30
2019-03-24T02:56:24.614Z,9.80
2019-03-24T02:57:01.313Z,9.07
2019-03-24T02:57:37.792Z,10.07
2019-03-24T02:58:14.372Z,9.80
2019-03-24T02:58:50.936Z,9.60
2019-03-24T02:59:27.562Z,11.10
2019-03-24T03:00:04.167Z,10.37
2019-03-24T03:00:40.790Z,10.33
2019-03-24T03:01:17.476Z,10.80
2019-03-24T03:01:53.952Z,11.67
2019-03-24T03:02:30.409Z,11.37
2019-03-24T03:03:07.032Z,10.70
2019-03-24T03:03:45.650Z,10.80
2019-03-24T03:04:22.265Z,10.93
2019-03-24T03:04:58.834Z,10.10
2019-03-24T03:05:35.519Z,10.63
2019-03-24T03:06:12.001Z,9.40
2019-03-24T03:06:50.006Z,11.50
2019-03-24T03:07:26.587Z,10.33
2019-03-24T03:08:03.098Z,10.77
2019-03-24T03:08:39.709Z,10.17
2019-03-24T03:09:17.670Z,9.70
2019-03-24T03:09:54.272Z,10.13
2019-03-24T03:10:30.855Z,11.73
2019-03-24T03:11:07.612Z,11.63
2019-03-24T03:11:44.167Z,10.67
2019-03-24T03:12:20.744Z,12.03
2019-03-24T03:12:57.501Z,11.53
2019-03-24T03:13:34.090Z,10.93
2019-03-24T03:14:10.730Z,9.77
2019-03-24T03:14:47.334Z,9.80
2019-03-24T03:15:23.874Z,10.93
2019-03-24T03:16:00.348Z,11.63
2019-03-24T03:16:38.842Z,10.67
2019-03-24T03:17:21.338Z,10.20
2019-03-24T03:17:57.931Z,10.43
2019-03-24T03:18:34.522Z,10.80
2019-03-24T03:19:13.949Z,10.77
2019-03-24T03:19:53.590Z,11.53
2019-03-24T03:20:30.000Z,10.70
2019-03-24T03:21:06.857Z,10.57
2019-03-24T03:21:43.356Z,11.37
2019-03-24T03:22:19.921Z,11.20
2019-03-24T03:22:57.937Z,10.53
2019-03-24T03:23:34.539Z,10.27
2019-03-24T03:24:11.151Z,10.37
2019-03-24T03:24:47.801Z,9.60
2019-03-24T03:25:24.258Z,9.80
2019-03-24T03:26:00.773Z,9.77
2019-03-24T03:26:37.258Z,9.63
2019-03-24T03:27:13.740Z,10.63
2019-03-24T03:27:50.273Z,10.13
2019-03-24T03:28:26.851Z,10.03
2019-03-24T03:29:03.470Z,10.30
2019-03-24T03:29:39.988Z,11.13
2019-03-24T03:30:16.670Z,9.47
2019-03-24T03:30:53.259Z,12.53
2019-03-24T03:31:29.821Z,11.37
2019-03-24T03:32:06.476Z,9.57
2019-03-24T03:32:43.129Z,10.57
2019-03-24T03:33:19.712Z,10.27
2019-03-24T03:33:56.233Z,10.17
2019-03-24T03:34:32.697Z,10.50
2019-03-24T03:35:09.911Z,9.57
2019-03-24T03:35:46.490Z,9.90
2019-03-24T03:36:22.966Z,10.80
2019-03-24T03:36:59.682Z,10.10
2019-03-24T03:37:36.275Z,9.63
2019-03-24T03:38:12.788Z,9.20
2019-03-24T03:38:49.357Z,10.67
2019-03-24T03:39:25.864Z,9.70
2019-03-24T03:40:02.336Z,11.33
2019-03-24T03:40:38.947Z,9.40
2019-03-24T03:41:15.705Z,10.33
2019-03-24T03:41:52.190Z,10.20
2019-03-24T03:42:29.229Z,9.77
2019-03-24T03:43:05.831Z,10.73
2019-03-24T03:43:42.396Z,9.77
2019-03-24T03:44:19.096Z,10.90
2019-03-24T03:44:55.719Z,10.53
2019-03-24T03:45:32.717Z,11.20
2019-03-24T03:46:09.264Z,9.37
2019-03-24T03:46:52.496Z,10.43
2019-03-24T03:47:24.169Z,11.40
2019-03-24T03:48:00.612Z,10.27
2019-03-24T03:48:37.085Z,10.50
2019-03-24T03:49:13.609Z,10.20
2019-03-24T03:49:50.235Z,9.33
2019-03-24T03:50:26.816Z,11.23
2019-03-24T03:51:03.334Z,11.20
2019-03-24T03:51:41.020Z,9.77
2019-03-24T03:52:17.435Z,9.03
2019-03-24T03:52:54.079Z,11.37
2019-03-24T03:53:30.866Z,9.73
2019-03-24T03:54:07.326Z,9.70
2019-03-24T03:54:43.800Z,9.63
2019-03-24T03:55:20.251Z,9.63
2019-03-24T03:55:56.736Z,9.85
2019-03-24T03:56:33.187Z,9.53
2019-03-24T03:57:09.724Z,10.50
2019-03-24T03:57:46.180Z,11.27
2019-03-24T03:58:22.623Z,10.80
2019-03-24T03:59:00.692Z,10.33
2019-03-24T03:59:37.466Z,9.27
2019-03-24T04:00:14.132Z,9.77
2019-03-24T04:00:50.597Z,10.37
2019-03-24T04:01:27.252Z,10.60
2019-03-24T04:02:03.733Z,10.00
2019-03-24T04:02:40.265Z,10.47
2019-03-24T04:03:16.871Z,9.77
2019-03-24T04:03:53.535Z,10.30
2019-03-24T04:04:29.954Z,10.60
2019-03-24T04:05:06.957Z,11.30
2019-03-24T04:05:43.486Z,11.70
2019-03-24T04:06:19.935Z,12.30
2019-03-24T04:06:56.528Z,11.13
2019-03-24T04:07:33.000Z,11.93
2019-03-24T04:08:09.798Z,11.00
2019-03-24T04:08:46.361Z,10.03
2019-03-24T04:09:23.026Z,9.63
2019-03-24T04:09:59.509Z,10.00
2019-03-24T04:10:36.075Z,9.60
2019-03-24T04:11:12.683Z,9.20
2019-03-24T04:11:49.327Z,11.17
2019-03-24T04:12:25.803Z,11.37
2019-03-24T04:13:02.227Z,10.23
2019-03-24T04:13:38.670Z,10.20
2019-03-24T04:14:15.229Z,9.53
2019-03-24T04:14:51.704Z,11.67
2019-03-24T04:15:28.319Z,9.97
2019-03-24T04:16:04.848Z,10.53
2019-03-24T04:16:41.488Z,10.40
2019-03-24T04:17:18.021Z,9.40
2019-03-24T04:17:54.589Z,11.00
2019-03-24T04:18:31.063Z,9.97
2019-03-24T04:19:07.599Z,10.33
2019-03-24T04:19:44.075Z,10.80
2019-03-24T04:20:20.605Z,9.30
2019-03-24T04:20:57.115Z,9.50
2019-03-24T04:21:33.600Z,8.90
2019-03-24T04:22:10.101Z,9.75
2019-03-24T04:22:46.666Z,12.03
2019-03-24T04:23:23.190Z,9.33
2019-03-24T04:23:59.757Z,8.87
2019-03-24T04:24:36.231Z,9.80
2019-03-24T04:25:12.803Z,8.83
2019-03-24T04:25:49.440Z,9.15
2019-03-24T04:26:26.064Z,9.20
2019-03-24T04:27:02.636Z,10.50
2019-03-24T04:27:39.220Z,10.07
2019-03-24T04:28:15.705Z,8.77
2019-03-24T04:28:52.309Z,10.10
2019-03-24T04:29:28.969Z,9.10
2019-03-24T04:30:05.651Z,8.87
2019-03-24T04:30:42.217Z,10.60
2019-03-24T04:31:18.766Z,9.80
2019-03-24T04:31:55.340Z,10.40
2019-03-24T04:32:31.819Z,9.30
2019-03-24T04:33:08.304Z,8.40
2019-03-24T04:33:44.778Z,10.97
2019-03-24T04:34:21.229Z,9.97
2019-03-24T04:34:57.943Z,10.10
2019-03-24T04:35:34.462Z,9.27
2019-03-24T04:36:10.886Z,9.50
2019-03-24T04:36:47.353Z,10.20
2019-03-24T04:37:23.949Z,11.53
2019-03-24T04:38:00.555Z,10.10
2019-03-24T04:38:37.103Z,9.90
2019-03-24T04:39:13.572Z,10.40
2019-03-24T04:39:50.127Z,9.53
2019-03-24T04:40:26.846Z,10.10
2019-03-24T04:41:03.326Z,10.47
2019-03-24T04:41:39.984Z,10.20
2019-03-24T04:42:16.524Z,10.93
2019-03-24T04:42:53.314Z,9.77
2019-03-24T04:43:29.859Z,11.17
2019-03-24T04:44:06.399Z,10.77
2019-03-24T04:44:42.905Z,10.33
2019-03-24T04:45:19.347Z,10.00
2019-03-24T04:45:55.803Z,11.30
2019-03-24T04:46:32.260Z,10.50
2019-03-24T04:47:16.337Z,8.80
2019-03-24T04:47:47.229Z,9.40
2019-03-24T04:48:23.723Z,8.90
2019-03-24T04:49:00.174Z,10.70
2019-03-24T04:49:37.843Z,9.27
2019-03-24T04:50:14.481Z,9.60
2019-03-24T04:50:51.089Z,10.30
2019-03-24T04:51:27.565Z,10.47
2019-03-24T04:52:04.146Z,9.93
2019-03-24T04:52:40.695Z,9.60
2019-03-24T04:53:17.407Z,10.13
2019-03-24T04:53:54.019Z,10.33
2019-03-24T04:54:30.621Z,10.00
2019-03-24T04:55:07.473Z,9.53
2019-03-24T04:55:43.949Z,9.47
2019-03-24T04:56:20.427Z,10.17
2019-03-24T04:56:56.985Z,10.07
2019-03-24T04:57:35.057Z,9.80
2019-03-24T04:58:11.584Z,10.03
2019-03-24T04:58:48.026Z,10.10
2019-03-24T04:59:24.465Z,9.23
2019-03-24T05:00:00.929Z,11.07
2019-03-24T05:00:39.227Z,11.20
2019-03-24T05:01:15.696Z,8.90
2019-03-24T05:01:52.269Z,9.67
2019-03-24T05:02:28.792Z,9.60
2019-03-24T05:03:05.395Z,9.77
2019-03-24T05:03:41.982Z,10.03
2019-03-24T05:04:18.534Z,9.37
2019-03-24T05:04:55.023Z,10.13
2019-03-24T05:05:31.569Z,11.77
2019-03-24T05:06:09.337Z,10.33
2019-03-24T05:06:47.365Z,9.27
2019-03-24T05:07:23.846Z,10.50
2019-03-24T05:08:00.389Z,9.77
2019-03-24T05:08:36.843Z,10.10
2019-03-24T05:09:15.280Z,9.60
2019-03-24T05:09:51.745Z,9.53
2019-03-24T05:10:32.356Z,10.50
2019-03-24T05:11:08.835Z,10.30
2019-03-24T05:11:48.507Z,10.20
2019-03-24T05:12:25.057Z,9.90
2019-03-24T05:13:01.522Z,9.57
2019-03-24T05:13:38.119Z,8.90
2019-03-24T05:14:14.667Z,10.03
2019-03-24T05:14:51.214Z,10.30
2019-03-24T05:15:27.859Z,10.17
2019-03-24T05:16:04.402Z,9.50
2019-03-24T05:16:43.725Z,9.30
2019-03-24T05:17:26.894Z,9.00
2019-03-24T05:17:59.728Z,10.10
2019-03-24T05:18:39.249Z,9.10
2019-03-24T05:19:15.816Z,10.23
2019-03-24T05:19:52.439Z,10.20
2019-03-24T05:20:28.980Z,9.50
2019-03-24T05:21:05.457Z,8.63
2019-03-24T05:21:44.689Z,8.87
2019-03-24T05:22:21.133Z,9.70
2019-03-24T05:22:57.709Z,10.00
2019-03-24T05:23:34.235Z,9.20
2019-03-24T05:24:10.712Z,9.17
2019-03-24T05:24:47.269Z,9.73
2019-03-24T05:25:23.849Z,9.90
2019-03-24T05:26:00.493Z,10.07
2019-03-24T05:26:37.171Z,8.50
2019-03-24T05:27:13.785Z,8.73
2019-03-24T05:27:50.249Z,9.93
2019-03-24T05:28:26.694Z,9.60
2019-03-24T05:29:03.314Z,9.20
2019-03-24T05:29:39.879Z,10.70
2019-03-24T05:30:16.510Z,11.27
2019-03-24T05:30:53.612Z,10.20
2019-03-24T05:31:30.088Z,10.60
2019-03-24T05:32:06.848Z,9.37
2019-03-24T05:32:43.545Z,9.87
2019-03-24T05:33:20.020Z,10.57
2019-03-24T05:33:56.632Z,10.50
2019-03-24T05:34:35.447Z,9.40
2019-03-24T05:35:12.101Z,10.27
2019-03-24T05:35:48.561Z,10.30
2019-03-24T05:36:25.143Z,10.10
2019-03-24T05:37:01.679Z,10.23
2019-03-24T05:37:38.223Z,11.37
2019-03-24T05:38:14.780Z,9.90
2019-03-24T05:38:51.370Z,10.70
2019-03-24T05:39:27.940Z,8.90
2019-03-24T05:40:04.439Z,11.27
2019-03-24T05:40:40.930Z,10.20
2019-03-24T05:41:17.506Z,8.50
2019-03-24T05:41:54.148Z,10.45
2019-03-24T05:42:30.607Z,10.77
2019-03-24T05:43:07.332Z,10.70
2019-03-24T05:43:43.810Z,10.10
2019-03-24T05:44:20.279Z,12.03
2019-03-24T05:44:56.902Z,9.70
2019-03-24T05:45:33.469Z,10.70
2019-03-24T05:46:11.443Z,9.80
2019-03-24T05:46:47.895Z,10.70
2019-03-24T05:47:24.434Z,11.90
2019-03-24T05:48:01.063Z,10.03
2019-03-24T05:48:37.606Z,10.20
2019-03-24T05:49:14.083Z,11.03
2019-03-24T05:49:50.620Z,10.37
2019-03-24T05:50:27.182Z,9.90
2019-03-24T05:51:03.650Z,10.20
2019-03-24T05:51:40.276Z,9.47
2019-03-24T05:52:16.931Z,10.93
2019-03-24T05:52:53.499Z,10.53
2019-03-24T05:53:30.075Z,9.80
2019-03-24T05:54:06.625Z,10.43
2019-03-24T05:54:43.209Z,10.23
2019-03-24T05:55:19.678Z,10.73
2019-03-24T05:55:59.173Z,10.00
2019-03-24T05:56:35.739Z,11.87
2019-03-24T05:57:12.291Z,10.27
2019-03-24T05:57:48.934Z,11.20
2019-03-24T05:58:25.601Z,11.10
2019-03-24T05:59:02.026Z,10.10
2019-03-24T05:59:38.575Z,10.13
2019-03-24T06:00:15.183Z,11.97
2019-03-24T06:00:51.681Z,11.17
2019-03-24T06:01:29.301Z,10.50
2019-03-24T06:02:05.991Z,10.90
2019-03-24T06:02:42.581Z,9.83
2019-03-24T06:03:19.144Z,11.50
2019-03-24T06:03:55.604Z,10.80
2019-03-24T06:04:32.029Z,11.80
2019-03-24T06:05:08.567Z,11.17
2019-03-24T06:05:45.125Z,10.70
2019-03-24T06:06:21.641Z,9.83
2019-03-24T06:06:58.218Z,11.87
2019-03-24T06:07:34.862Z,10.60
2019-03-24T06:08:11.510Z,9.80
2019-03-24T06:08:48.060Z,11.40
2019-03-24T06:09:24.645Z,10.33
2019-03-24T06:10:01.183Z,10.53
2019-03-24T06:10:37.817Z,11.43
2019-03-24T06:11:14.377Z,10.10
2019-03-24T06:11:50.987Z,11.27
2019-03-24T06:12:27.596Z,10.50
2019-03-24T06:13:04.044Z,9.87
2019-03-24T06:13:40.642Z,10.97
2019-03-24T06:14:18.347Z,10.53
2019-03-24T06:14:58.435Z,11.07
2019-03-24T06:15:35.057Z,9.50
2019-03-24T06:16:11.648Z,10.37
2019-03-24T06:16:48.101Z,10.63
2019-03-24T06:17:24.689Z,9.67
2019-03-24T06:18:01.143Z,10.50
2019-03-24T06:18:37.641Z,10.07
2019-03-24T06:19:16.856Z,11.03
2019-03-24T06:19:53.448Z,11.17
2019-03-24T06:20:30.030Z,10.90
2019-03-24T06:21:07.786Z,10.13
2019-03-24T06:21:44.261Z,10.63
2019-03-24T06:22:22.058Z,9.90
2019-03-24T06:22:58.713Z,9.00
2019-03-24T06:23:35.228Z,10.80
2019-03-24T06:24:11.764Z,10.80
2019-03-24T06:24:48.271Z,10.17
2019-03-24T06:25:24.918Z,10.20
2019-03-24T06:26:01.549Z,11.07
2019-03-24T06:26:37.993Z,9.60
2019-03-24T06:27:14.621Z,9.97
2019-03-24T06:27:51.180Z,10.73
2019-03-24T06:28:27.766Z,10.07
2019-03-24T06:29:04.360Z,10.67
2019-03-24T06:29:40.813Z,10.03
2019-03-24T06:30:18.958Z,10.67
2019-03-24T06:30:55.411Z,9.60
2019-03-24T06:31:31.851Z,9.33
2019-03-24T06:32:08.482Z,9.70
2019-03-24T06:32:44.933Z,9.10
2019-03-24T06:33:21.492Z,9.97
2019-03-24T06:33:58.102Z,10.20
2019-03-24T06:34:34.681Z,10.63
2019-03-24T06:35:11.424Z,9.63
2019-03-24T06:35:48.008Z,9.60
2019-03-24T06:36:25.815Z,9.70
2019-03-24T06:37:02.379Z,10.27
2019-03-24T06:37:38.854Z,10.97
2019-03-24T06:38:15.430Z,10.87
2019-03-24T06:38:52.029Z,10.40
2019-03-24T06:39:28.477Z,10.13
2019-03-24T06:40:05.054Z,9.80
2019-03-24T06:40:42.921Z,10.03
2019-03-24T06:41:19.404Z,10.07
2019-03-24T06:41:55.884Z,9.97
2019-03-24T06:42:32.323Z,8.90
2019-03-24T06:43:08.898Z,9.80
2019-03-24T06:43:45.733Z,10.40
2019-03-24T06:44:22.217Z,10.70
2019-03-24T06:44:58.783Z,10.77
2019-03-24T06:45:35.332Z,9.87
2019-03-24T06:46:11.948Z,9.60
2019-03-24T06:46:48.470Z,10.07
2019-03-24T06:47:24.909Z,9.93
2019-03-24T06:48:01.344Z,10.43
2019-03-24T06:48:37.959Z,9.23
2019-03-24T06:49:14.401Z,10.65
2019-03-24T06:49:50.884Z,10.70
2019-03-24T06:50:27.364Z,9.30
2019-03-24T06:51:03.917Z,9.77
2019-03-24T06:51:40.516Z,8.70
2019-03-24T06:52:18.639Z,9.73
2019-03-24T06:52:55.239Z,9.80
2019-03-24T06:53:34.510Z,9.30
2019-03-24T06:54:11.072Z,8.83
2019-03-24T06:54:47.664Z,8.87
2019-03-24T06:55:24.204Z,9.70
2019-03-24T06:56:00.637Z,8.90
2019-03-24T06:56:37.226Z,9.60
2019-03-24T06:57:13.850Z,9.60
2019-03-24T06:57:50.398Z,9.30
2019-03-24T06:58:28.170Z,8.67
2019-03-24T06:59:04.717Z,10.37
2019-03-24T06:59:41.177Z,8.60
2019-03-24T07:00:18.050Z,9.53
2019-03-24T07:00:54.541Z,10.47
2019-03-24T07:01:31.035Z,9.30
2019-03-24T07:02:08.919Z,9.70
2019-03-24T07:02:45.541Z,9.20
2019-03-24T07:03:22.116Z,8.53
2019-03-24T07:03:58.737Z,8.70
2019-03-24T07:04:35.242Z,9.17
2019-03-24T07:05:11.785Z,9.67
2019-03-24T07:05:48.365Z,10.40
2019-03-24T07:06:24.905Z,8.60
2019-03-24T07:07:01.473Z,8.17
2019-03-24T07:07:38.017Z,8.30
2019-03-24T07:08:14.543Z,7.80
2019-03-24T07:08:51.165Z,9.03
2019-03-24T07:09:27.608Z,8.23
2019-03-24T07:10:04.238Z,9.10
2019-03-24T07:10:40.738Z,9.03
2019-03-24T07:11:17.254Z,9.77
2019-03-24T07:11:56.755Z,10.20
2019-03-24T07:12:33.284Z,9.70
2019-03-24T07:13:09.849Z,8.73
2019-03-24T07:13:46.350Z,9.07
2019-03-24T07:14:22.879Z,8.73
2019-03-24T07:14:59.483Z,9.87
2019-03-24T07:15:36.042Z,9.17
2019-03-24T07:16:12.641Z,9.30
2019-03-24T07:16:49.269Z,8.90
2019-03-24T07:17:25.957Z,9.23
2019-03-24T07:18:08.468Z,9.53
2019-03-24T07:18:40.925Z,8.50
2019-03-24T07:19:17.405Z,9.00
2019-03-24T07:19:54.054Z,9.60
2019-03-24T07:20:30.495Z,8.93
2019-03-24T07:21:07.038Z,8.13
2019-03-24T07:21:43.627Z,8.00
2019-03-24T07:22:20.055Z,7.87
2019-03-24T07:22:59.433Z,8.30
2019-03-24T07:23:36.064Z,9.00
2019-03-24T07:24:12.583Z,9.63
2019-03-24T07:24:49.112Z,9.33
2019-03-24T07:25:25.768Z,8.43
2019-03-24T07:26:02.405Z,8.87
2019-03-24T07:26:38.982Z,9.83
2019-03-24T07:27:15.620Z,8.77
2019-03-24T07:27:52.085Z,8.67
2019-03-24T07:28:28.544Z,9.83
2019-03-24T07:29:05.151Z,10.00
2019-03-24T07:29:41.599Z,8.07
2019-03-24T07:30:18.173Z,9.23
2019-03-24T07:30:54.805Z,8.60
2019-03-24T07:31:31.256Z,9.40
2019-03-24T07:32:07.878Z,8.30
2019-03-24T07:32:44.347Z,9.20
2019-03-24T07:33:20.874Z,9.40
2019-03-24T07:33:57.514Z,8.70
2019-03-24T07:34:34.127Z,8.20
2019-03-24T07:35:10.900Z,8.00
2019-03-24T07:35:48.898Z,8.40
2019-03-24T07:36:25.370Z,8.73
2019-03-24T07:37:01.971Z,8.43
2019-03-24T07:37:38.572Z,8.13
2019-03-24T07:38:15.248Z,9.67
2019-03-24T07:38:51.872Z,10.27
2019-03-24T07:39:28.346Z,9.23
2019-03-24T07:40:04.980Z,8.83
2019-03-24T07:40:41.705Z,8.23
2019-03-24T07:41:18.291Z,8.70
2019-03-24T07:41:55.408Z,8.37
2019-03-24T07:42:32.021Z,9.57
2019-03-24T07:43:08.609Z,9.20
2019-03-24T07:43:45.181Z,9.60
2019-03-24T07:44:23.635Z,9.57
2019-03-24T07:45:00.314Z,9.93
2019-03-24T07:45:36.928Z,8.90
2019-03-24T07:46:13.418Z,9.20
2019-03-24T07:46:49.952Z,10.50
2019-03-24T07:47:26.527Z,9.63
2019-03-24T07:48:03.153Z,9.87
2019-03-24T07:48:41.790Z,9.00
2019-03-24T07:49:18.395Z,9.90
2019-03-24T07:49:57.788Z,9.60
2019-03-24T07:50:34.313Z,10.00
2019-03-24T07:51:10.914Z,7.97
2019-03-24T07:51:47.413Z,10.67
2019-03-24T07:52:23.941Z,9.67
2019-03-24T07:53:00.473Z,9.10
2019-03-24T07:53:37.023Z,10.00
2019-03-24T07:54:13.573Z,10.03
2019-03-24T07:54:50.067Z,9.90
2019-03-24T07:55:26.675Z,10.60
2019-03-24T07:56:03.404Z,10.80
2019-03-24T07:56:39.983Z,10.10
2019-03-24T07:57:16.456Z,10.27
2019-03-24T07:57:52.944Z,10.43
2019-03-24T07:58:29.513Z,10.87
2019-03-24T07:59:06.084Z,9.77
2019-03-24T07:59:42.845Z,9.60
2019-03-24T08:00:41.792Z,9.57
2019-03-24T08:01:18.423Z,10.53
2019-03-24T08:01:55.082Z,8.80
2019-03-24T08:02:31.639Z,9.33